Time;durP1;ratioP1;P1;durP2;ratioP2;P2;SDS_P1;SDS_P2;PMS_P1;PMS_P2;Temp;Humidity;BMP_temperature;BMP_pressure;BME280_temperature;BME280_humidity;BME280_pressure;Samples;Min_cycle;Max_cycle;Signal;HPM_P1;HPM_P2
2022/10/14 00:01:04;;;;;;;12.33;9.07;;;12.40;99.90;;;;;;494527;241;28400;-80
2022/10/14 00:03:06;;;;;;;14.23;9.00;;;12.30;99.90;;;;;;494386;241;28060;-81
2022/10/14 00:05:08;;;;;;;11.70;8.60;;;;;;;;;;494507;240;28580;-81
2022/10/14 00:07:09;;;;;;;9.33;7.50;;;12.40;99.90;;;;;;494332;241;27301;-80
2022/10/14 00:09:11;;;;;;;10.43;7.33;;;12.30;99.90;;;;;;494529;241;28211;-79
2022/10/14 00:11:12;;;;;;;12.03;8.50;;;12.40;99.90;;;;;;494537;241;28202;-80
2022/10/14 00:13:13;;;;;;;10.70;7.97;;;12.40;99.90;;;;;;494367;241;28186;-80
2022/10/14 00:15:14;;;;;;;10.80;8.37;;;12.30;99.90;;;;;;494510;241;28949;-79
2022/10/14 00:17:16;;;;;;;9.60;7.27;;;12.40;99.90;;;;;;494547;239;28521;-79
2022/10/14 00:19:17;;;;;;;9.10;7.40;;;12.40;99.90;;;;;;494643;241;28665;-79
2022/10/14 00:21:18;;;;;;;11.00;7.63;;;12.30;99.90;;;;;;494590;241;28056;-80
2022/10/14 00:23:19;;;;;;;11.90;8.47;;;12.40;99.90;;;;;;494421;241;28060;-80
2022/10/14 00:25:21;;;;;;;9.50;7.47;;;12.40;99.90;;;;;;494403;241;28236;-80
2022/10/14 00:27:23;;;;;;;10.50;7.53;;;;;;;;;;494339;241;28369;-82
2022/10/14 00:29:24;;;;;;;12.93;7.80;;;12.40;99.90;;;;;;494528;241;27413;-80
2022/10/14 00:31:26;;;;;;;15.70;8.87;;;12.30;99.90;;;;;;494470;241;27827;-79
2022/10/14 00:33:27;;;;;;;9.70;7.70;;;12.40;99.90;;;;;;494359;241;28459;-80
2022/10/14 00:35:30;;;;;;;10.10;7.87;;;12.40;99.90;;;;;;494526;241;27920;-80
2022/10/14 00:37:29;;;;;;;10.37;8.10;;;12.40;99.90;;;;;;494200;241;27908;-80
2022/10/14 00:39:31;;;;;;;10.80;8.20;;;12.30;99.90;;;;;;494528;241;28071;-80
2022/10/14 00:41:32;;;;;;;10.13;7.83;;;12.40;99.90;;;;;;494393;241;28177;-80
2022/10/14 00:43:33;;;;;;;10.83;8.33;;;12.40;99.90;;;;;;494543;240;28161;-79
2022/10/14 00:45:34;;;;;;;13.20;9.10;;;12.40;99.90;;;;;;494570;237;27925;-80
2022/10/14 00:47:36;;;;;;;13.73;8.60;;;12.40;99.90;;;;;;494336;241;28468;-80
2022/10/14 00:49:37;;;;;;;9.87;7.47;;;12.40;99.90;;;;;;494552;241;28365;-80
2022/10/14 00:51:39;;;;;;;14.23;8.50;;;;;;;;;;494555;241;28250;-81
2022/10/14 00:53:41;;;;;;;12.70;9.03;;;12.20;99.90;;;;;;494389;237;27088;-80
2022/10/14 00:55:42;;;;;;;11.53;8.90;;;12.40;99.90;;;;;;494430;241;28893;-80
2022/10/14 00:57:43;;;;;;;11.07;8.77;;;12.40;99.90;;;;;;494422;241;28514;-80
2022/10/14 00:59:44;;;;;;;11.83;8.20;;;12.40;99.90;;;;;;494427;241;28176;-80
2022/10/14 01:01:46;;;;;;;13.43;9.50;;;12.40;99.90;;;;;;494460;241;27919;-80
2022/10/14 01:03:47;;;;;;;11.70;8.60;;;12.50;99.90;;;;;;494403;241;28091;-80
2022/10/14 01:05:48;;;;;;;11.07;8.40;;;12.30;99.90;;;;;;494585;241;28078;-80
2022/10/14 01:07:49;;;;;;;9.30;7.80;;;12.40;99.90;;;;;;494415;237;28067;-80
2022/10/14 01:09:51;;;;;;;14.63;9.33;;;12.40;99.90;;;;;;494428;241;27926;-79
2022/10/14 01:11:52;;;;;;;9.30;7.40;;;12.40;99.90;;;;;;494546;241;28190;-79
2022/10/14 01:13:53;;;;;;;12.60;9.23;;;12.40;99.90;;;;;;494556;241;28483;-79
2022/10/14 01:15:55;;;;;;;14.27;9.73;;;12.40;99.90;;;;;;494411;237;28609;-80
2022/10/14 01:17:56;;;;;;;12.10;8.70;;;12.50;99.90;;;;;;494359;237;28062;-80
2022/10/14 01:19:57;;;;;;;11.77;9.73;;;12.30;99.90;;;;;;494560;241;27958;-79
2022/10/14 01:21:58;;;;;;;11.47;8.30;;;12.50;99.90;;;;;;494551;241;28258;-80
2022/10/14 01:24:04;;;;;;;12.63;7.87;;;12.40;99.90;;;;;;494423;241;28167;-80
2022/10/14 01:26:03;;;;;;;15.43;9.33;;;12.50;99.90;;;;;;494311;241;28087;-80
2022/10/14 01:28:05;;;;;;;12.30;8.13;;;11.60;99.90;;;;;;494443;241;29099;-80
2022/10/14 01:30:06;;;;;;;12.17;8.57;;;12.40;99.90;;;;;;494408;241;28576;-80
2022/10/14 01:32:07;;;;;;;13.47;9.23;;;12.50;99.90;;;;;;494478;241;28016;-80
2022/10/14 01:34:09;;;;;;;13.53;8.70;;;12.40;99.90;;;;;;494592;241;28043;-80
2022/10/14 01:36:10;;;;;;;11.43;8.30;;;12.40;99.90;;;;;;494343;241;28311;-81
2022/10/14 01:38:11;;;;;;;11.30;8.53;;;12.60;99.90;;;;;;494454;241;28276;-80
2022/10/14 01:40:12;;;;;;;11.90;8.10;;;12.40;99.90;;;;;;494572;241;28033;-80
2022/10/14 01:42:13;;;;;;;14.30;8.80;;;12.40;99.90;;;;;;494545;241;27918;-79
2022/10/14 01:44:15;;;;;;;14.43;8.23;;;12.50;99.90;;;;;;494538;237;28438;-80
2022/10/14 01:46:16;;;;;;;10.77;8.00;;;12.50;99.90;;;;;;494498;241;28668;-80
2022/10/14 01:48:17;;;;;;;13.47;8.40;;;12.40;99.90;;;;;;494410;241;28556;-80
2022/10/14 01:50:18;;;;;;;10.83;7.80;;;12.50;99.90;;;;;;494571;241;27937;-80
2022/10/14 01:52:21;;;;;;;9.40;7.33;;;;;;;;;;494447;241;28035;-81
2022/10/14 01:54:22;;;;;;;9.70;7.07;;;12.60;99.90;;;;;;494432;241;27080;-79
2022/10/14 01:56:23;;;;;;;12.70;7.40;;;12.50;99.90;;;;;;494356;241;28527;-79
2022/10/14 01:58:25;;;;;;;8.63;6.80;;;12.60;99.90;;;;;;494531;237;28488;-79
2022/10/14 02:00:26;;;;;;;9.03;7.10;;;12.50;99.90;;;;;;494578;241;28113;-80
2022/10/14 02:02:27;;;;;;;9.73;7.20;;;12.40;99.90;;;;;;494557;241;28074;-79
2022/10/14 02:04:28;;;;;;;7.80;6.43;;;12.50;99.90;;;;;;494558;241;28081;-80
2022/10/14 02:06:30;;;;;;;7.27;6.33;;;12.50;99.90;;;;;;494501;241;28096;-80
2022/10/14 02:08:31;;;;;;;10.17;7.40;;;12.50;99.90;;;;;;494531;241;28046;-80
2022/10/14 02:10:32;;;;;;;7.43;6.07;;;12.50;99.90;;;;;;494433;241;28305;-80
2022/10/14 02:12:33;;;;;;;9.17;6.83;;;12.60;99.90;;;;;;494558;241;28209;-79
2022/10/14 02:14:35;;;;;;;9.47;7.20;;;12.40;99.90;;;;;;494414;241;28265;-80
2022/10/14 02:16:37;;;;;;;9.80;7.10;;;12.50;99.90;;;;;;494527;241;28160;-80
2022/10/14 02:18:37;;;;;;;8.80;7.10;;;12.50;99.90;;;;;;494555;237;28690;-79
2022/10/14 02:20:38;;;;;;;11.17;7.87;;;12.50;99.90;;;;;;494614;241;28633;-79
2022/10/14 02:22:40;;;;;;;8.63;7.00;;;12.60;99.90;;;;;;494657;241;28098;-80
2022/10/14 02:24:41;;;;;;;9.80;7.50;;;12.40;99.90;;;;;;494655;241;28062;-79
2022/10/14 02:26:42;;;;;;;9.63;7.37;;;11.30;99.90;;;;;;494594;241;28402;-80
2022/10/14 02:28:43;;;;;;;9.80;7.70;;;12.50;99.90;;;;;;494634;241;27996;-81
2022/10/14 02:30:45;;;;;;;12.63;7.30;;;12.50;99.90;;;;;;494583;241;27975;-80
2022/10/14 02:32:46;;;;;;;9.40;7.57;;;12.40;99.90;;;;;;494549;241;28094;-80
2022/10/14 02:34:47;;;;;;;9.93;6.83;;;12.00;99.90;;;;;;494394;241;28247;-80
2022/10/14 02:36:48;;;;;;;9.27;6.83;;;12.10;99.90;;;;;;494377;241;28197;-80
2022/10/14 02:38:50;;;;;;;8.23;6.67;;;12.50;99.90;;;;;;494524;237;28170;-80
2022/10/14 02:40:51;;;;;;;9.83;6.63;;;12.50;99.90;;;;;;494498;241;28782;-79
2022/10/14 02:42:52;;;;;;;7.17;6.47;;;12.40;99.90;;;;;;494547;241;28290;-80
2022/10/14 02:44:53;;;;;;;9.80;7.03;;;12.60;99.90;;;;;;494545;241;28532;-80
2022/10/14 02:46:55;;;;;;;10.70;7.43;;;12.50;99.90;;;;;;494464;241;28042;-79
2022/10/14 02:48:56;;;;;;;11.47;7.53;;;12.50;99.90;;;;;;494554;241;28141;-80
2022/10/14 02:50:57;;;;;;;10.07;7.57;;;13.40;99.90;;;;;;494423;241;27935;-80
2022/10/14 02:52:58;;;;;;;8.27;6.40;;;12.50;99.90;;;;;;494397;241;28048;-80
2022/10/14 02:55:00;;;;;;;8.03;7.00;;;12.50;99.90;;;;;;494558;241;28273;-80
2022/10/14 02:57:01;;;;;;;9.93;8.00;;;12.50;99.90;;;;;;494474;237;28186;-81
2022/10/14 02:59:02;;;;;;;9.50;7.70;;;12.60;99.90;;;;;;494420;241;28056;-80
2022/10/14 03:01:03;;;;;;;9.53;7.37;;;12.50;99.90;;;;;;494524;241;28589;-79
2022/10/14 03:03:05;;;;;;;8.53;7.30;;;12.50;99.90;;;;;;494560;241;28637;-79
2022/10/14 03:05:06;;;;;;;17.63;9.07;;;12.60;99.90;;;;;;494497;241;28592;-80
2022/10/14 03:07:07;;;;;;;17.00;9.83;;;12.50;99.90;;;;;;494458;241;28237;-80
2022/10/14 03:09:08;;;;;;;14.30;8.30;;;12.60;99.90;;;;;;494412;241;28496;-80
2022/10/14 03:11:10;;;;;;;11.93;8.47;;;12.50;99.90;;;;;;494556;241;27940;-80
2022/10/14 03:13:11;;;;;;;9.30;7.50;;;12.60;99.90;;;;;;494400;241;27939;-81
2022/10/14 03:15:12;;;;;;;10.63;6.97;;;12.50;99.90;;;;;;494415;241;27949;-81
2022/10/14 03:17:13;;;;;;;8.87;7.00;;;12.60;99.90;;;;;;494431;241;27842;-80
2022/10/14 03:19:15;;;;;;;8.87;6.80;;;12.50;99.90;;;;;;494551;239;28398;-80
2022/10/14 03:21:16;;;;;;;11.20;7.80;;;12.50;99.90;;;;;;494536;237;27944;-80
2022/10/14 03:23:17;;;;;;;12.70;8.27;;;12.60;99.90;;;;;;494565;241;27965;-80
2022/10/14 03:25:18;;;;;;;11.33;7.90;;;12.60;99.90;;;;;;494575;241;27897;-80
2022/10/14 03:27:20;;;;;;;12.17;8.17;;;12.60;99.90;;;;;;494356;237;28228;-80
2022/10/14 03:29:21;;;;;;;14.53;9.50;;;12.50;99.90;;;;;;494432;241;28529;-80
2022/10/14 03:31:22;;;;;;;16.10;9.43;;;12.70;99.90;;;;;;494427;241;28377;-80
2022/10/14 03:33:23;;;;;;;13.07;8.47;;;12.80;99.90;;;;;;494516;241;27909;-80
2022/10/14 03:35:25;;;;;;;11.97;8.23;;;12.60;99.90;;;;;;494572;241;28783;-80
2022/10/14 03:37:26;;;;;;;13.40;8.13;;;12.60;99.90;;;;;;494429;237;28372;-80
2022/10/14 03:39:27;;;;;;;12.57;8.80;;;12.60;99.90;;;;;;494545;237;28430;-80
2022/10/14 03:41:28;;;;;;;10.60;7.43;;;12.70;99.90;;;;;;494494;241;27915;-80
2022/10/14 03:43:30;;;;;;;11.50;8.23;;;12.60;99.90;;;;;;494568;241;28174;-79
2022/10/14 03:45:31;;;;;;;10.33;7.60;;;12.70;99.90;;;;;;494607;237;27941;-80
2022/10/14 03:47:32;;;;;;;10.23;7.17;;;12.60;99.90;;;;;;494464;237;27923;-79
2022/10/14 03:49:35;;;;;;;8.50;7.03;;;;;;;;;;494463;241;27957;-82
2022/10/14 03:51:36;;;;;;;16.60;9.30;;;12.60;99.90;;;;;;494483;241;27411;-80
2022/10/14 03:53:37;;;;;;;9.70;7.27;;;12.60;99.90;;;;;;494507;241;27836;-80
2022/10/14 03:55:38;;;;;;;11.73;8.17;;;12.50;99.90;;;;;;494424;241;28015;-80
2022/10/14 03:57:40;;;;;;;10.33;7.60;;;12.60;99.90;;;;;;494462;241;28283;-80
2022/10/14 03:59:41;;;;;;;10.17;7.93;;;12.60;99.90;;;;;;494440;241;28005;-80
2022/10/14 04:01:42;;;;;;;10.77;8.37;;;12.50;99.90;;;;;;494548;241;27898;-81
2022/10/14 04:03:45;;;;;;;11.97;7.93;;;12.50;99.90;;;;;;494442;241;27996;-81
2022/10/14 04:05:45;;;;;;;9.10;7.53;;;12.50;99.90;;;;;;494464;241;28035;-79
2022/10/14 04:07:46;;;;;;;11.30;8.30;;;12.60;99.90;;;;;;494458;241;28497;-80
2022/10/14 04:09:47;;;;;;;9.70;7.80;;;12.60;99.90;;;;;;494559;241;28506;-79
2022/10/14 04:11:48;;;;;;;8.60;7.20;;;12.60;99.90;;;;;;494550;241;27902;-80
2022/10/14 04:13:50;;;;;;;8.40;6.40;;;12.50;99.90;;;;;;494554;241;27900;-80
2022/10/14 04:15:51;;;;;;;9.60;7.10;;;12.60;99.90;;;;;;494411;241;28269;-79
2022/10/14 04:17:52;;;;;;;9.73;6.40;;;12.60;99.90;;;;;;494331;241;27934;-80
2022/10/14 04:19:53;;;;;;;6.73;5.43;;;12.50;99.90;;;;;;494409;241;28025;-79
2022/10/14 04:21:55;;;;;;;9.17;6.50;;;12.50;99.90;;;;;;494534;241;27985;-80
2022/10/14 04:23:56;;;;;;;11.23;7.80;;;12.50;99.90;;;;;;494384;241;28419;-80
2022/10/14 04:25:57;;;;;;;8.03;7.23;;;12.50;99.90;;;;;;494394;241;28009;-81
2022/10/14 04:27:59;;;;;;;11.27;7.33;;;12.50;99.90;;;;;;494388;241;28342;-79
2022/10/14 04:30:00;;;;;;;8.63;6.60;;;12.60;99.90;;;;;;494410;241;28917;-80
2022/10/14 04:32:01;;;;;;;10.70;7.03;;;12.50;99.90;;;;;;494417;241;28989;-80
2022/10/14 04:34:02;;;;;;;13.70;6.70;;;12.50;99.90;;;;;;494523;241;28112;-80
2022/10/14 04:36:03;;;;;;;7.70;6.07;;;12.60;99.90;;;;;;494532;241;28250;-79
2022/10/14 04:38:05;;;;;;;9.80;6.50;;;12.60;99.90;;;;;;494364;241;28365;-80
2022/10/14 04:40:06;;;;;;;6.10;5.30;;;12.70;99.90;;;;;;494555;241;28076;-80
2022/10/14 04:42:08;;;;;;;9.03;6.17;;;;;;;;;;494557;241;27903;-82
2022/10/14 04:44:11;;;;;;;7.10;6.40;;;;;;;;;;494538;241;27551;-81
2022/10/14 04:46:12;;;;;;;7.20;6.43;;;12.50;99.90;;;;;;494482;241;27074;-80
2022/10/14 04:48:13;;;;;;;9.13;6.73;;;12.40;99.90;;;;;;494451;237;28405;-80
2022/10/14 04:50:15;;;;;;;8.13;6.17;;;12.40;99.90;;;;;;494557;241;28167;-80
2022/10/14 04:52:16;;;;;;;8.30;5.90;;;12.40;99.90;;;;;;494559;241;28679;-80
2022/10/14 04:54:18;;;;;;;7.90;6.47;;;;;;;;;;494536;237;28604;-82
2022/10/14 04:56:19;;;;;;;6.80;6.10;;;12.50;99.90;;;;;;494505;241;27169;-80
2022/10/14 04:58:21;;;;;;;10.40;6.27;;;12.50;99.90;;;;;;494406;241;28082;-79
2022/10/14 05:00:22;;;;;;;8.00;6.30;;;12.40;99.90;;;;;;494549;241;28197;-79
2022/10/14 05:02:23;;;;;;;7.60;6.20;;;12.40;99.90;;;;;;494421;241;28388;-79
2022/10/14 05:04:25;;;;;;;7.50;6.50;;;12.40;99.90;;;;;;494415;241;28664;-80
2022/10/14 05:06:27;;;;;;;7.03;6.07;;;;;;;;;;494489;241;28632;-81
2022/10/14 05:08:28;;;;;;;7.90;5.77;;;12.40;99.90;;;;;;494393;241;27060;-80
2022/10/14 05:10:30;;;;;;;7.00;5.57;;;12.40;99.90;;;;;;494426;241;28073;-80
2022/10/14 05:12:31;;;;;;;6.10;5.50;;;12.30;99.90;;;;;;494317;241;28177;-80
2022/10/14 05:14:32;;;;;;;7.00;5.70;;;12.40;99.90;;;;;;494526;241;28076;-80
2022/10/14 05:16:33;;;;;;;6.53;5.33;;;12.30;99.90;;;;;;494369;241;28708;-79
2022/10/14 05:18:34;;;;;;;6.47;5.80;;;12.30;99.90;;;;;;494414;241;28868;-80
2022/10/14 05:20:37;;;;;;;6.17;5.30;;;12.30;99.90;;;;;;494535;241;28127;-80
2022/10/14 05:22:37;;;;;;;5.90;5.27;;;12.40;99.90;;;;;;494511;241;28279;-80
2022/10/14 05:24:38;;;;;;;6.17;5.13;;;12.40;99.90;;;;;;494589;241;27792;-80
2022/10/14 05:26:39;;;;;;;5.50;4.80;;;12.40;99.90;;;;;;494346;241;28082;-79
2022/10/14 05:28:41;;;;;;;8.57;5.20;;;12.30;99.90;;;;;;494520;237;28054;-79
2022/10/14 05:30:42;;;;;;;6.30;5.43;;;12.30;99.90;;;;;;494575;241;28096;-80
2022/10/14 05:32:43;;;;;;;5.40;4.90;;;12.30;99.90;;;;;;494419;241;28167;-79
2022/10/14 05:34:44;;;;;;;5.67;4.93;;;12.30;99.90;;;;;;494564;241;28128;-80
2022/10/14 05:36:46;;;;;;;5.77;4.90;;;12.20;99.90;;;;;;494334;241;28145;-80
2022/10/14 05:38:49;;;;;;;5.37;4.87;;;12.20;99.90;;;;;;494576;241;27827;-79
2022/10/14 05:40:48;;;;;;;4.70;4.30;;;12.10;99.90;;;;;;494339;241;28655;-80
2022/10/14 05:42:49;;;;;;;5.20;4.70;;;12.10;99.90;;;;;;494477;241;28698;-79
2022/10/14 05:44:51;;;;;;;4.70;4.30;;;12.10;99.90;;;;;;494435;241;27946;-79
2022/10/14 05:46:52;;;;;;;4.80;4.07;;;12.10;99.90;;;;;;494497;237;28184;-79
2022/10/14 05:48:53;;;;;;;5.40;4.90;;;12.10;99.90;;;;;;494427;240;28137;-79
2022/10/14 05:50:54;;;;;;;6.60;4.90;;;12.20;99.90;;;;;;494428;241;28018;-79
2022/10/14 05:52:56;;;;;;;5.30;4.80;;;12.20;99.90;;;;;;494467;241;28092;-78
2022/10/14 05:54:57;;;;;;;5.40;4.90;;;12.20;99.90;;;;;;494416;241;28074;-80
2022/10/14 05:56:58;;;;;;;6.63;4.30;;;12.30;99.90;;;;;;494407;237;27950;-78
2022/10/14 05:58:59;;;;;;;6.00;4.87;;;12.20;99.90;;;;;;494585;241;28127;-80
2022/10/14 06:01:01;;;;;;;4.90;4.40;;;12.30;99.90;;;;;;494462;241;28226;-79
2022/10/14 06:03:02;;;;;;;5.23;4.70;;;12.30;99.90;;;;;;494462;241;28469;-79
2022/10/14 06:05:04;;;;;;;6.40;4.80;;;12.30;99.90;;;;;;494473;241;28118;-80
2022/10/14 06:07:04;;;;;;;5.37;4.87;;;12.30;99.90;;;;;;494504;241;28612;-80
2022/10/14 06:09:06;;;;;;;7.00;5.50;;;12.40;99.90;;;;;;494448;241;28146;-80
2022/10/14 06:11:07;;;;;;;4.87;4.37;;;12.40;99.90;;;;;;494607;241;28062;-79
2022/10/14 06:13:08;;;;;;;5.10;4.60;;;12.40;99.90;;;;;;494592;241;28157;-79
2022/10/14 06:15:09;;;;;;;4.73;4.27;;;12.40;99.90;;;;;;494568;241;28073;-79
2022/10/14 06:17:11;;;;;;;5.57;4.60;;;12.50;99.90;;;;;;494536;240;28025;-78
2022/10/14 06:19:12;;;;;;;6.13;4.43;;;12.50;99.90;;;;;;494074;241;28425;-80
2022/10/14 06:21:13;;;;;;;4.83;4.43;;;12.50;99.90;;;;;;494596;241;28496;-80
2022/10/14 06:23:15;;;;;;;4.77;4.07;;;12.50;99.90;;;;;;494594;241;28130;-80
2022/10/14 06:25:16;;;;;;;7.43;4.60;;;12.50;99.90;;;;;;494565;241;28078;-79
2022/10/14 06:27:17;;;;;;;4.60;4.20;;;12.60;99.90;;;;;;494475;237;27801;-80
2022/10/14 06:29:18;;;;;;;5.60;4.97;;;12.60;99.90;;;;;;494569;241;28171;-80
2022/10/14 06:31:20;;;;;;;5.30;4.70;;;12.60;99.90;;;;;;494440;241;27944;-80
2022/10/14 06:33:21;;;;;;;5.13;4.50;;;12.60;99.90;;;;;;494587;241;28176;-79
2022/10/14 06:35:22;;;;;;;5.43;4.10;;;12.60;99.90;;;;;;494558;240;28145;-79
2022/10/14 06:37:23;;;;;;;5.30;4.77;;;12.50;99.90;;;;;;494490;241;28132;-79
2022/10/14 06:39:25;;;;;;;7.00;4.80;;;12.60;99.90;;;;;;494450;241;28295;-79
2022/10/14 06:41:26;;;;;;;5.27;4.80;;;12.70;99.90;;;;;;494443;241;28181;-80
2022/10/14 06:43:27;;;;;;;6.83;4.97;;;12.70;99.90;;;;;;494585;241;28183;-79
2022/10/14 06:45:28;;;;;;;7.03;5.10;;;12.70;99.90;;;;;;494474;241;28488;-80
2022/10/14 06:47:30;;;;;;;5.73;5.23;;;12.70;99.90;;;;;;494390;241;28276;-80
2022/10/14 06:49:31;;;;;;;6.63;5.33;;;12.80;99.90;;;;;;494603;237;28366;-80
2022/10/14 06:51:32;;;;;;;5.40;4.90;;;12.80;99.90;;;;;;494556;241;27835;-80
2022/10/14 06:53:33;;;;;;;5.37;4.70;;;12.80;99.90;;;;;;494437;241;27941;-79
2022/10/14 06:55:35;;;;;;;5.10;4.60;;;12.80;99.90;;;;;;494444;241;27924;-80
2022/10/14 06:57:36;;;;;;;4.93;4.53;;;12.80;99.90;;;;;;494475;241;28065;-79
2022/10/14 06:59:37;;;;;;;7.10;5.67;;;12.80;99.90;;;;;;494422;241;28283;-79
2022/10/14 07:01:38;;;;;;;5.03;4.63;;;12.80;99.90;;;;;;494545;241;28244;-79
2022/10/14 07:03:40;;;;;;;5.70;5.10;;;12.80;99.90;;;;;;494426;241;27951;-80
2022/10/14 07:05:41;;;;;;;5.80;5.20;;;12.90;99.90;;;;;;494432;241;28584;-80
2022/10/14 07:07:42;;;;;;;7.63;5.20;;;12.90;99.90;;;;;;494457;237;28038;-80
2022/10/14 07:09:43;;;;;;;8.03;5.70;;;13.00;99.90;;;;;;494616;241;28408;-79
2022/10/14 07:11:45;;;;;;;5.93;4.87;;;13.10;99.90;;;;;;494513;241;27940;-80
2022/10/14 07:13:46;;;;;;;6.83;5.30;;;13.00;99.90;;;;;;494520;241;28273;-80
2022/10/14 07:15:49;;;;;;;5.30;4.80;;;;;;;;;;494564;241;27986;-81
2022/10/14 07:17:50;;;;;;;6.10;5.50;;;13.10;99.90;;;;;;494406;241;27355;-80
2022/10/14 07:19:51;;;;;;;5.60;5.10;;;13.00;99.90;;;;;;494463;241;28634;-79
2022/10/14 07:21:52;;;;;;;6.20;5.50;;;13.00;99.90;;;;;;494444;241;28519;-80
2022/10/14 07:23:54;;;;;;;5.73;4.80;;;13.10;99.90;;;;;;494475;241;28490;-79
2022/10/14 07:25:55;;;;;;;7.77;5.77;;;13.10;99.90;;;;;;494427;241;28001;-80
2022/10/14 07:27:56;;;;;;;11.10;5.33;;;12.90;99.90;;;;;;494384;241;28245;-81
2022/10/14 07:29:57;;;;;;;6.70;4.90;;;13.10;99.90;;;;;;494566;241;28371;-79
2022/10/14 07:31:58;;;;;;;8.70;5.47;;;13.10;99.90;;;;;;494625;241;28288;-79
2022/10/14 07:34:03;;;;;;;6.13;5.23;;;13.20;99.90;;;;;;494574;241;28200;-79
2022/10/14 07:36:02;;;;;;;5.63;5.00;;;13.10;99.90;;;;;;494381;241;28170;-78
2022/10/14 07:38:02;;;;;;;5.77;5.27;;;13.20;99.90;;;;;;494356;241;28526;-80
2022/10/14 07:40:03;;;;;;;6.60;5.50;;;13.30;99.90;;;;;;494492;241;28381;-79
2022/10/14 07:42:05;;;;;;;7.90;5.30;;;13.30;99.90;;;;;;494540;241;27997;-79
2022/10/14 07:44:07;;;;;;;6.10;5.50;;;13.20;99.90;;;;;;494474;241;27950;-80
2022/10/14 07:46:07;;;;;;;7.10;5.50;;;13.20;99.90;;;;;;494460;241;28192;-78
2022/10/14 07:48:08;;;;;;;6.53;5.37;;;13.30;99.90;;;;;;494540;241;28224;-80
2022/10/14 07:50:10;;;;;;;8.97;5.50;;;13.30;99.90;;;;;;494591;241;28176;-79
2022/10/14 07:52:11;;;;;;;6.37;5.40;;;13.30;99.90;;;;;;494457;241;28180;-80
2022/10/14 07:54:12;;;;;;;6.80;5.37;;;13.30;99.90;;;;;;494562;241;28157;-80
2022/10/14 07:56:13;;;;;;;6.73;5.87;;;13.30;99.90;;;;;;494522;241;28500;-80
2022/10/14 07:58:15;;;;;;;6.30;5.07;;;13.40;99.90;;;;;;494550;241;28064;-80
2022/10/14 08:00:16;;;;;;;6.47;5.87;;;13.40;99.90;;;;;;494538;241;28186;-79
2022/10/14 08:02:18;;;;;;;7.10;5.83;;;13.50;99.90;;;;;;494429;241;28835;-80
2022/10/14 08:04:18;;;;;;;8.77;5.60;;;13.60;99.90;;;;;;494582;240;28736;-80
2022/10/14 08:06:20;;;;;;;8.20;6.17;;;13.60;99.90;;;;;;494396;241;28658;-79
2022/10/14 08:08:23;;;;;;;6.87;6.10;;;13.70;99.90;;;;;;494571;241;28064;-80
2022/10/14 08:10:22;;;;;;;7.10;5.73;;;13.70;99.90;;;;;;494325;241;28151;-80
2022/10/14 08:12:23;;;;;;;6.13;5.53;;;13.70;99.90;;;;;;494549;241;28152;-80
2022/10/14 08:14:25;;;;;;;6.70;5.43;;;13.90;99.90;;;;;;494462;241;28162;-80
2022/10/14 08:16:27;;;;;;;6.60;5.63;;;;;;;;;;494380;241;28171;-81
2022/10/14 08:18:28;;;;;;;8.87;6.10;;;14.00;99.90;;;;;;494590;241;26908;-80
2022/10/14 08:20:31;;;;;;;6.40;5.70;;;13.90;99.90;;;;;;494565;241;28156;-80
2022/10/14 08:22:32;;;;;;;7.53;5.80;;;;;;;;;;494487;241;28175;-81
2022/10/14 08:24:33;;;;;;;5.80;5.20;;;14.10;99.90;;;;;;494575;241;26413;-80
2022/10/14 08:26:35;;;;;;;6.73;5.43;;;14.10;99.90;;;;;;494413;241;28062;-80
2022/10/14 08:28:36;;;;;;;6.37;5.63;;;14.10;99.90;;;;;;494569;241;28611;-80
2022/10/14 08:30:37;;;;;;;8.10;5.40;;;14.20;99.90;;;;;;494455;241;29195;-80
2022/10/14 08:32:38;;;;;;;8.77;5.77;;;14.20;99.90;;;;;;494557;241;28688;-79
2022/10/14 08:34:40;;;;;;;6.20;5.30;;;14.20;99.90;;;;;;494561;241;28256;-80
2022/10/14 08:36:41;;;;;;;7.27;6.53;;;14.10;99.90;;;;;;494513;241;28395;-79
2022/10/14 08:38:42;;;;;;;7.20;5.77;;;14.00;99.90;;;;;;494410;241;28699;-79
2022/10/14 08:40:43;;;;;;;9.43;6.90;;;13.90;99.90;;;;;;494569;241;28457;-80
2022/10/14 08:42:45;;;;;;;9.33;5.60;;;13.80;99.90;;;;;;494569;241;28471;-79
2022/10/14 08:44:46;;;;;;;6.47;5.87;;;13.80;99.90;;;;;;494592;241;28325;-80
2022/10/14 08:46:47;;;;;;;7.20;5.70;;;13.70;99.90;;;;;;494389;241;28164;-80
2022/10/14 08:48:48;;;;;;;7.77;5.70;;;13.60;99.90;;;;;;494591;237;28155;-79
2022/10/14 08:50:50;;;;;;;5.63;5.03;;;13.60;99.90;;;;;;494437;240;28581;-80
2022/10/14 08:52:51;;;;;;;7.13;4.63;;;13.70;99.90;;;;;;494471;241;28909;-79
2022/10/14 08:54:54;;;;;;;5.87;5.27;;;13.80;99.90;;;;;;494568;241;28126;-80
2022/10/14 08:56:53;;;;;;;6.33;4.73;;;13.70;99.90;;;;;;494380;241;28850;-80
2022/10/14 08:58:55;;;;;;;6.50;5.33;;;13.70;99.90;;;;;;494486;241;28201;-81
2022/10/14 09:00:56;;;;;;;5.37;4.73;;;13.70;99.90;;;;;;494467;241;28131;-79
2022/10/14 09:02:57;;;;;;;5.97;4.37;;;13.80;99.90;;;;;;494355;241;28087;-80
2022/10/14 09:04:58;;;;;;;7.63;4.53;;;13.90;99.90;;;;;;494461;241;28071;-79
2022/10/14 09:07:00;;;;;;;6.90;4.17;;;13.90;99.90;;;;;;494551;241;28070;-79
2022/10/14 09:09:01;;;;;;;5.77;4.80;;;13.90;99.90;;;;;;494448;241;28445;-79
2022/10/14 09:11:02;;;;;;;11.23;4.27;;;13.90;99.90;;;;;;494461;241;28201;-80
2022/10/14 09:13:03;;;;;;;4.40;4.00;;;13.90;99.90;;;;;;494432;240;28173;-80
2022/10/14 09:15:05;;;;;;;4.27;3.90;;;14.10;99.90;;;;;;494551;241;28881;-79
2022/10/14 09:17:06;;;;;;;7.57;4.10;;;14.10;99.90;;;;;;494502;241;29188;-79
2022/10/14 09:19:07;;;;;;;5.87;4.10;;;14.00;99.90;;;;;;494631;241;29042;-80
2022/10/14 09:21:08;;;;;;;6.13;4.20;;;14.10;99.90;;;;;;494466;241;28171;-80
2022/10/14 09:23:10;;;;;;;5.43;4.07;;;14.10;99.90;;;;;;494575;241;28151;-80
2022/10/14 09:25:11;;;;;;;5.20;4.07;;;14.30;99.90;;;;;;494573;241;28243;-78
2022/10/14 09:27:12;;;;;;;4.30;3.90;;;14.20;99.90;;;;;;494452;237;28494;-80
2022/10/14 09:29:13;;;;;;;9.30;4.73;;;14.30;99.90;;;;;;494482;241;28281;-80
2022/10/14 09:31:15;;;;;;;4.77;4.33;;;14.30;99.90;;;;;;494621;241;28401;-80
2022/10/14 09:33:17;;;;;;;6.37;4.10;;;14.30;99.90;;;;;;494626;241;28271;-79
2022/10/14 09:35:17;;;;;;;8.90;3.97;;;14.30;99.90;;;;;;494498;241;28372;-81
2022/10/14 09:37:18;;;;;;;4.40;4.00;;;14.30;99.90;;;;;;494441;237;28895;-80
2022/10/14 09:39:20;;;;;;;5.77;4.07;;;14.30;99.90;;;;;;494648;241;29086;-80
2022/10/14 09:41:21;;;;;;;4.80;4.30;;;14.30;99.90;;;;;;494533;239;29004;-80
2022/10/14 09:43:23;;;;;;;4.40;4.00;;;14.30;99.90;;;;;;494509;241;28930;-81
2022/10/14 09:45:23;;;;;;;4.40;4.00;;;14.50;99.90;;;;;;494564;241;28701;-81
2022/10/14 09:47:25;;;;;;;5.00;3.57;;;14.50;99.90;;;;;;494509;237;28782;-79
2022/10/14 09:49:26;;;;;;;4.20;3.40;;;14.50;99.90;;;;;;494443;241;28793;-80
2022/10/14 09:51:27;;;;;;;4.70;3.00;;;14.40;99.90;;;;;;494478;241;28696;-80
2022/10/14 09:53:28;;;;;;;3.47;3.23;;;14.40;99.90;;;;;;494581;241;28698;-80
2022/10/14 09:55:30;;;;;;;3.60;3.30;;;14.50;99.90;;;;;;494613;241;28458;-80
2022/10/14 09:57:31;;;;;;;3.60;3.30;;;14.50;99.90;;;;;;494386;241;28371;-80
2022/10/14 09:59:32;;;;;;;4.20;3.80;;;14.40;99.90;;;;;;494473;241;28693;-80
2022/10/14 10:01:33;;;;;;;3.93;3.17;;;14.40;99.90;;;;;;494476;241;28851;-80
2022/10/14 10:03:35;;;;;;;4.60;3.37;;;14.30;99.90;;;;;;494482;241;28859;-80
2022/10/14 10:05:36;;;;;;;4.00;3.63;;;14.40;99.90;;;;;;494597;241;29185;-79
2022/10/14 10:07:37;;;;;;;5.10;3.30;;;14.40;99.90;;;;;;494436;241;28662;-78
2022/10/14 10:09:38;;;;;;;5.10;3.60;;;14.30;99.90;;;;;;494577;241;28396;-80
2022/10/14 10:11:40;;;;;;;3.13;2.87;;;14.30;99.90;;;;;;494453;241;28404;-80
2022/10/14 10:13:43;;;;;;;6.83;3.53;;;14.40;99.90;;;;;;494597;241;28459;-79
2022/10/14 10:15:42;;;;;;;3.80;3.13;;;14.40;99.90;;;;;;494459;241;28714;-80
2022/10/14 10:17:46;;;;;;;4.93;3.80;;;14.50;99.90;;;;;;494456;241;28768;-79
2022/10/14 10:19:45;;;;;;;5.00;3.50;;;14.40;99.90;;;;;;494324;241;28674;-80
2022/10/14 10:21:46;;;;;;;4.83;3.23;;;14.20;99.90;;;;;;494443;241;28693;-80
2022/10/14 10:23:47;;;;;;;5.37;3.00;;;13.90;99.90;;;;;;494586;241;28295;-79
2022/10/14 10:25:48;;;;;;;3.63;3.20;;;14.30;99.90;;;;;;494450;241;28954;-79
2022/10/14 10:27:51;;;;;;;5.90;3.17;;;14.40;99.90;;;;;;494473;237;28925;-79
2022/10/14 10:29:51;;;;;;;3.20;2.90;;;14.40;99.90;;;;;;494386;241;29207;-80
2022/10/14 10:31:52;;;;;;;3.20;2.90;;;14.30;99.90;;;;;;494565;241;28713;-79